Time;durP1;ratioP1;P1;durP2;ratioP2;P2;SDS_P1;SDS_P2;PMS_P1;PMS_P2;Temp;Humidity;BMP_temperature;BMP_pressure;BME280_temperature;BME280_humidity;BME280_pressure;Samples;Min_cycle;Max_cycle;Signal;HPM_P1;HPM_P2
2023/12/26 00:00:14;;;;;;;6.13;3.10;;;21.40;58.70;;;;;;5090211;28;20283;-70
2023/12/26 00:02:40;;;;;;;6.30;3.00;;;21.40;58.70;;;;;;5088632;28;20977;-67
2023/12/26 00:05:06;;;;;;;4.40;2.87;;;21.40;58.70;;;;;;5084798;28;20193;-68
2023/12/26 00:07:31;;;;;;;4.40;2.70;;;21.40;58.70;;;;;;5086484;28;20205;-68
2023/12/26 00:09:57;;;;;;;6.87;3.13;;;21.40;58.70;;;;;;5082897;28;20192;-69
2023/12/26 00:12:25;;;;;;;4.23;2.93;;;21.40;58.80;;;;;;5086880;28;20185;-69
2023/12/26 00:14:51;;;;;;;4.97;2.90;;;21.40;58.80;;;;;;5088327;28;20182;-69
2023/12/26 00:17:17;;;;;;;4.10;2.53;;;21.40;58.80;;;;;;5088457;28;20605;-68
2023/12/26 00:19:43;;;;;;;5.47;2.83;;;21.40;58.80;;;;;;5086457;28;20182;-69
2023/12/26 00:22:08;;;;;;;5.33;2.93;;;21.40;58.70;;;;;;5085719;28;20181;-70
2023/12/26 00:24:34;;;;;;;8.10;2.93;;;21.40;58.70;;;;;;5084875;28;20485;-70
2023/12/26 00:26:59;;;;;;;3.77;2.37;;;21.40;58.80;;;;;;5079974;28;20285;-70
2023/12/26 00:29:25;;;;;;;5.27;2.80;;;21.40;58.80;;;;;;5080291;28;20672;-71
2023/12/26 00:31:51;;;;;;;4.40;3.10;;;21.40;58.80;;;;;;5083854;28;20247;-71
2023/12/26 00:34:17;;;;;;;5.30;3.60;;;21.40;58.70;;;;;;5084163;28;20185;-70
2023/12/26 00:36:42;;;;;;;7.43;3.13;;;21.30;58.60;;;;;;5081565;28;20204;-71
2023/12/26 00:39:08;;;;;;;4.40;2.90;;;21.40;58.60;;;;;;5084916;28;20188;-70
2023/12/26 00:41:34;;;;;;;7.27;3.20;;;21.40;58.70;;;;;;5082126;28;20189;-71
2023/12/26 00:43:59;;;;;;;6.10;3.57;;;21.30;58.60;;;;;;5086095;28;20186;-70
2023/12/26 00:46:25;;;;;;;3.70;2.90;;;21.30;58.60;;;;;;5088341;28;20183;-70
2023/12/26 00:48:51;;;;;;;7.20;2.90;;;21.30;58.60;;;;;;5088367;28;21433;-70
2023/12/26 00:51:16;;;;;;;8.33;3.23;;;21.30;58.70;;;;;;5086969;28;20197;-70
2023/12/26 00:53:42;;;;;;;5.70;2.90;;;21.40;58.70;;;;;;5085967;28;20189;-69
2023/12/26 00:56:07;;;;;;;7.30;2.77;;;21.30;58.70;;;;;;5086519;28;20197;-69
2023/12/26 00:58:33;;;;;;;3.60;2.53;;;21.30;58.70;;;;;;5086049;28;20189;-70
2023/12/26 01:00:59;;;;;;;6.43;3.13;;;21.30;58.70;;;;;;5086298;28;20204;-70
2023/12/26 01:03:25;;;;;;;4.40;3.00;;;21.30;58.70;;;;;;5085027;28;20660;-70
2023/12/26 01:05:51;;;;;;;5.93;4.43;;;21.30;58.70;;;;;;5085360;28;20185;-71
2023/12/26 01:08:18;;;;;;;4.00;2.90;;;21.30;58.70;;;;;;5079858;28;20298;-70
2023/12/26 01:10:44;;;;;;;4.40;2.40;;;21.40;58.70;;;;;;5079687;28;20522;-70
2023/12/26 01:13:09;;;;;;;3.93;2.80;;;21.30;58.60;;;;;;5083042;28;20447;-70
2023/12/26 01:15:36;;;;;;;6.13;2.57;;;21.40;58.60;;;;;;5086786;28;20197;-69
2023/12/26 01:18:02;;;;;;;3.70;2.40;;;21.30;58.60;;;;;;5090620;28;20209;-68
2023/12/26 01:20:27;;;;;;;5.00;3.10;;;21.30;58.60;;;;;;5089239;28;20423;-69
2023/12/26 01:22:53;;;;;;;6.70;3.43;;;21.30;58.60;;;;;;5090394;28;20178;-69
2023/12/26 01:25:19;;;;;;;4.53;2.43;;;21.30;58.50;;;;;;5090559;28;20180;-70
2023/12/26 01:27:44;;;;;;;4.90;2.97;;;21.30;58.60;;;;;;5090663;28;20197;-68
2023/12/26 01:30:10;;;;;;;4.40;3.30;;;21.30;58.60;;;;;;5090308;28;20261;-70
2023/12/26 01:32:36;;;;;;;6.07;2.83;;;21.30;58.60;;;;;;5090428;28;20230;-70
2023/12/26 01:35:01;;;;;;;5.27;2.93;;;21.30;58.50;;;;;;5090800;28;20412;-69
2023/12/26 01:37:27;;;;;;;4.43;3.50;;;21.30;58.60;;;;;;5090456;28;20197;-69
2023/12/26 01:39:53;;;;;;;6.20;3.13;;;21.30;58.60;;;;;;5090879;28;20659;-69
2023/12/26 01:42:18;;;;;;;5.30;3.20;;;21.30;58.60;;;;;;5090594;28;20723;-70
2023/12/26 01:44:44;;;;;;;4.10;2.67;;;21.30;58.60;;;;;;5090409;28;20174;-70
2023/12/26 01:47:11;;;;;;;6.17;2.73;;;21.30;58.60;;;;;;5090300;28;20302;-70
2023/12/26 01:49:37;;;;;;;5.50;3.03;;;21.30;58.60;;;;;;5089286;28;20178;-69
2023/12/26 01:52:06;;;;;;;6.20;2.97;;;21.30;58.60;;;;;;5089610;28;20467;-69
2023/12/26 01:54:35;;;;;;;4.93;2.80;;;21.30;58.60;;;;;;5093497;28;20922;-70
2023/12/26 01:57:02;;;;;;;3.87;2.57;;;21.30;58.50;;;;;;5093721;28;20442;-70
2023/12/26 01:59:28;;;;;;;3.67;2.53;;;21.30;58.60;;;;;;5093534;28;20416;-68
2023/12/26 02:01:54;;;;;;;3.50;2.90;;;21.30;58.50;;;;;;5093331;28;20494;-70
2023/12/26 02:04:21;;;;;;;3.10;2.40;;;21.30;58.60;;;;;;5093474;28;20416;-69
2023/12/26 02:06:49;;;;;;;4.67;3.07;;;21.30;58.60;;;;;;5093623;28;20427;-70
2023/12/26 02:09:15;;;;;;;2.93;2.40;;;21.30;58.60;;;;;;5084111;28;20931;-70
2023/12/26 02:11:41;;;;;;;3.90;2.50;;;21.30;58.60;;;;;;5072987;28;20551;-70
2023/12/26 02:14:09;;;;;;;5.77;3.30;;;21.30;58.60;;;;;;5073330;28;20204;-70
2023/12/26 02:16:38;;;;;;;5.27;2.37;;;21.30;58.60;;;;;;5071579;28;20532;-70
2023/12/26 02:19:04;;;;;;;4.60;2.70;;;21.30;58.60;;;;;;5073237;28;20400;-70
2023/12/26 02:21:30;;;;;;;4.83;2.53;;;21.30;58.70;;;;;;5073070;28;20918;-69
2023/12/26 02:23:56;;;;;;;3.33;2.50;;;21.30;58.60;;;;;;5072976;28;20177;-70
2023/12/26 02:26:24;;;;;;;4.03;2.27;;;21.30;58.60;;;;;;5072793;28;20413;-69
2023/12/26 02:28:52;;;;;;;4.00;2.77;;;21.30;58.60;;;;;;5072811;28;20179;-70
2023/12/26 02:31:18;;;;;;;4.40;3.57;;;21.30;58.60;;;;;;5071299;28;20535;-69
2023/12/26 02:33:46;;;;;;;4.43;2.23;;;21.30;58.60;;;;;;5072659;28;20409;-69
2023/12/26 02:36:12;;;;;;;4.00;2.43;;;21.30;58.60;;;;;;5072582;28;20507;-70
2023/12/26 02:38:38;;;;;;;3.83;2.83;;;21.30;58.60;;;;;;5072927;28;20435;-69
2023/12/26 02:41:04;;;;;;;4.80;2.57;;;21.30;58.60;;;;;;5072550;28;20412;-69
2023/12/26 02:43:29;;;;;;;3.03;2.20;;;21.30;58.60;;;;;;5072327;28;20657;-70
2023/12/26 02:45:55;;;;;;;3.83;2.50;;;21.30;58.60;;;;;;5072490;28;20575;-70
2023/12/26 02:48:21;;;;;;;3.57;2.13;;;21.30;58.60;;;;;;5072311;28;20191;-70
2023/12/26 02:50:47;;;;;;;4.60;2.47;;;21.30;58.70;;;;;;5072433;28;20230;-69
2023/12/26 02:53:13;;;;;;;3.10;2.20;;;21.30;58.60;;;;;;5072519;28;20280;-68
2023/12/26 02:55:40;;;;;;;5.07;2.93;;;21.20;58.50;;;;;;5072262;28;20507;-69
2023/12/26 02:58:06;;;;;;;3.80;2.40;;;21.30;58.70;;;;;;5070635;28;20197;-69
2023/12/26 03:00:31;;;;;;;4.77;3.00;;;21.30;58.70;;;;;;5072225;28;20416;-69
2023/12/26 03:02:57;;;;;;;3.90;2.40;;;21.30;58.70;;;;;;5072079;28;20741;-69
2023/12/26 03:05:23;;;;;;;4.50;2.67;;;21.30;58.70;;;;;;5071157;28;20189;-69
2023/12/26 03:07:49;;;;;;;3.57;2.60;;;21.30;58.70;;;;;;5072008;28;20572;-69
2023/12/26 03:10:15;;;;;;;3.83;2.50;;;21.20;58.60;;;;;;5071985;28;20173;-69
2023/12/26 03:12:41;;;;;;;4.53;2.33;;;21.20;58.60;;;;;;5072064;28;20884;-69
2023/12/26 03:15:07;;;;;;;2.73;2.20;;;21.30;58.70;;;;;;5072365;28;20588;-69
2023/12/26 03:17:33;;;;;;;5.20;2.10;;;21.20;58.60;;;;;;5071845;28;20467;-69
2023/12/26 03:19:59;;;;;;;3.93;2.00;;;21.20;58.60;;;;;;5072220;28;20408;-69
2023/12/26 03:22:24;;;;;;;2.87;2.03;;;21.20;58.60;;;;;;5071902;28;20546;-70
2023/12/26 03:24:50;;;;;;;4.17;2.47;;;21.30;58.70;;;;;;5072125;28;20185;-69
2023/12/26 03:27:16;;;;;;;3.00;2.30;;;21.20;58.60;;;;;;5071880;28;20763;-69
2023/12/26 03:29:41;;;;;;;3.67;2.60;;;21.20;58.60;;;;;;5072162;28;20668;-69
2023/12/26 03:32:09;;;;;;;3.90;1.87;;;21.20;58.60;;;;;;5072154;28;20701;-68
2023/12/26 03:34:37;;;;;;;3.30;2.10;;;21.30;58.70;;;;;;5072330;28;20239;-69
2023/12/26 03:37:03;;;;;;;3.00;2.37;;;21.20;58.60;;;;;;5072010;28;20421;-69
2023/12/26 03:39:29;;;;;;;4.33;2.60;;;21.20;58.60;;;;;;5072067;28;20404;-69
2023/12/26 03:41:54;;;;;;;2.87;2.07;;;21.20;58.60;;;;;;5070376;28;20420;-69
2023/12/26 03:44:20;;;;;;;5.30;2.87;;;21.20;58.60;;;;;;5070424;28;20247;-69
2023/12/26 03:46:46;;;;;;;3.70;2.33;;;21.20;58.60;;;;;;5071937;28;20190;-69
2023/12/26 03:49:11;;;;;;;2.90;1.97;;;21.20;58.60;;;;;;5071813;28;20180;-68
2023/12/26 03:51:37;;;;;;;4.10;1.90;;;21.20;58.60;;;;;;5071679;28;20617;-69
2023/12/26 03:54:03;;;;;;;4.70;2.57;;;21.20;58.60;;;;;;5072068;28;20182;-69
2023/12/26 03:56:33;;;;;;;3.17;2.07;;;21.20;58.60;;;;;;5071582;28;20555;-68
2023/12/26 03:58:59;;;;;;;3.40;2.10;;;21.20;58.60;;;;;;5071778;28;20409;-71
2023/12/26 04:01:25;;;;;;;3.47;2.40;;;21.20;58.60;;;;;;5071618;28;20413;-69
2023/12/26 04:03:51;;;;;;;3.30;2.43;;;21.20;58.60;;;;;;5071652;28;20408;-69
2023/12/26 04:06:17;;;;;;;2.73;2.40;;;21.20;58.60;;;;;;5070055;28;20492;-69
2023/12/26 04:08:43;;;;;;;3.17;2.07;;;21.20;59.20;;;;;;5071405;28;20269;-70
2023/12/26 04:11:13;;;;;;;4.20;2.40;;;21.20;58.60;;;;;;5071643;28;20968;-69
2023/12/26 04:13:39;;;;;;;4.80;2.47;;;21.20;58.60;;;;;;5071912;28;20170;-70
2023/12/26 04:16:06;;;;;;;3.50;2.10;;;21.20;58.60;;;;;;5070564;28;20405;-70
2023/12/26 04:18:32;;;;;;;3.40;2.00;;;21.20;58.60;;;;;;5071558;28;20456;-70
2023/12/26 04:20:58;;;;;;;3.40;2.10;;;21.20;58.70;;;;;;5071671;28;20415;-70
2023/12/26 04:23:24;;;;;;;2.90;2.00;;;21.20;58.60;;;;;;5071242;28;20412;-70
2023/12/26 04:25:49;;;;;;;5.03;2.07;;;21.20;58.60;;;;;;5070923;28;20265;-69
2023/12/26 04:28:15;;;;;;;3.10;2.00;;;21.20;58.70;;;;;;5069363;28;20615;-70
2023/12/26 04:30:41;;;;;;;2.60;1.80;;;21.20;58.60;;;;;;5070391;28;20637;-69
2023/12/26 04:33:07;;;;;;;2.13;1.80;;;21.20;58.70;;;;;;5069403;28;20698;-69
2023/12/26 04:35:34;;;;;;;3.77;2.00;;;21.20;58.70;;;;;;5071134;28;20170;-70
2023/12/26 04:38:00;;;;;;;4.23;1.73;;;21.20;58.70;;;;;;5070726;28;20664;-69
2023/12/26 04:40:26;;;;;;;3.53;2.20;;;21.20;58.70;;;;;;5071152;28;20488;-70
2023/12/26 04:42:51;;;;;;;3.17;2.40;;;21.20;58.70;;;;;;5070797;28;20167;-70
2023/12/26 04:45:17;;;;;;;2.33;2.13;;;21.20;58.70;;;;;;5071082;28;20500;-69
2023/12/26 04:47:43;;;;;;;4.10;2.37;;;21.20;58.70;;;;;;5070505;28;20633;-70
2023/12/26 04:50:09;;;;;;;3.50;2.20;;;21.20;58.70;;;;;;5070515;28;20177;-70
2023/12/26 04:52:34;;;;;;;2.93;1.90;;;21.20;58.60;;;;;;5070567;28;20205;-69
2023/12/26 04:55:00;;;;;;;3.27;1.87;;;21.20;58.60;;;;;;5070671;28;20162;-70
2023/12/26 04:57:26;;;;;;;2.00;1.70;;;21.20;58.70;;;;;;5069251;28;20194;-70
2023/12/26 04:59:52;;;;;;;3.83;1.90;;;21.20;58.60;;;;;;5070619;28;20404;-70
2023/12/26 05:02:18;;;;;;;2.30;2.10;;;21.20;58.60;;;;;;5070855;28;20915;-70
2023/12/26 05:04:43;;;;;;;3.03;1.87;;;21.20;58.60;;;;;;5070729;28;20280;-70
2023/12/26 05:07:09;;;;;;;2.63;1.90;;;21.20;58.60;;;;;;5070674;28;20731;-70
2023/12/26 05:09:35;;;;;;;4.77;2.40;;;21.20;58.60;;;;;;5070827;28;20200;-70
2023/12/26 05:12:01;;;;;;;3.43;1.73;;;21.20;58.60;;;;;;5069259;28;20201;-70
2023/12/26 05:14:26;;;;;;;2.53;1.70;;;21.20;58.60;;;;;;5071002;28;20401;-70
2023/12/26 05:16:52;;;;;;;3.30;1.93;;;21.20;58.60;;;;;;5070387;28;20285;-70
2023/12/26 05:19:18;;;;;;;3.20;2.10;;;21.20;58.60;;;;;;5070539;28;20157;-70
2023/12/26 05:21:43;;;;;;;3.47;1.83;;;21.20;58.60;;;;;;5070603;28;20174;-70
2023/12/26 05:24:09;;;;;;;2.60;1.70;;;21.20;58.60;;;;;;5071070;28;20236;-70
2023/12/26 05:26:42;;;;;;;3.67;1.80;;;21.20;58.60;;;;;;5068994;28;20185;-70
2023/12/26 05:29:11;;;;;;;3.57;2.40;;;21.20;58.60;;;;;;5074101;28;20198;-70
2023/12/26 05:31:38;;;;;;;3.10;1.77;;;21.20;58.60;;;;;;5074427;28;20448;-70
2023/12/26 05:34:06;;;;;;;3.30;1.93;;;21.20;58.50;;;;;;5074271;28;20413;-70
2023/12/26 05:36:32;;;;;;;3.30;2.00;;;21.20;58.50;;;;;;5074179;28;20462;-70
2023/12/26 05:38:58;;;;;;;1.73;1.53;;;21.20;58.50;;;;;;5074293;28;20400;-69
2023/12/26 05:41:25;;;;;;;3.07;1.77;;;21.20;58.50;;;;;;5074013;28;20175;-69
2023/12/26 05:43:51;;;;;;;2.50;1.83;;;21.20;58.50;;;;;;5072771;28;20417;-68
2023/12/26 05:46:18;;;;;;;2.10;1.53;;;21.20;58.50;;;;;;5074070;28;20416;-69
2023/12/26 05:48:44;;;;;;;2.70;1.80;;;21.20;58.50;;;;;;5074073;28;20947;-70
2023/12/26 05:51:10;;;;;;;2.47;1.53;;;21.20;58.50;;;;;;5073614;28;20444;-70
2023/12/26 05:53:36;;;;;;;2.87;1.90;;;21.20;58.50;;;;;;5073554;28;20405;-69
2023/12/26 05:56:01;;;;;;;2.67;1.83;;;21.20;58.50;;;;;;5073558;28;20170;-69
2023/12/26 05:58:27;;;;;;;2.87;1.90;;;21.20;58.50;;;;;;5073625;28;20721;-70
2023/12/26 06:00:54;;;;;;;4.27;2.13;;;21.20;58.50;;;;;;5073889;28;20551;-70
2023/12/26 06:03:19;;;;;;;2.80;1.70;;;21.20;58.50;;;;;;5073481;28;20408;-69
2023/12/26 06:05:46;;;;;;;2.70;1.90;;;21.20;58.50;;;;;;5073540;28;20411;-69
2023/12/26 06:08:11;;;;;;;2.63;1.70;;;21.20;59.10;;;;;;5073374;28;20201;-70
2023/12/26 06:10:37;;;;;;;2.40;1.73;;;21.20;58.50;;;;;;5073671;28;20452;-70
2023/12/26 06:13:03;;;;;;;2.60;1.77;;;21.20;58.50;;;;;;5074070;28;20174;-70
2023/12/26 06:15:29;;;;;;;2.47;1.50;;;21.20;58.60;;;;;;5072081;28;20289;-71
2023/12/26 06:17:56;;;;;;;3.63;2.23;;;21.20;58.60;;;;;;5073076;28;20464;-70
2023/12/26 06:20:24;;;;;;;2.30;1.53;;;21.20;58.60;;;;;;5073326;28;20401;-71
2023/12/26 06:22:50;;;;;;;2.17;1.60;;;21.20;58.60;;;;;;5073604;28;20416;-71
2023/12/26 06:25:16;;;;;;;2.63;1.43;;;21.20;58.70;;;;;;5073970;28;20614;-70
2023/12/26 06:27:41;;;;;;;2.30;1.40;;;21.30;58.90;;;;;;5074130;28;20193;-72
2023/12/26 06:30:07;;;;;;;3.30;1.60;;;21.30;58.80;;;;;;5072681;28;20169;-70
2023/12/26 06:32:33;;;;;;;4.43;2.17;;;21.30;58.70;;;;;;5072780;28;20255;-70
2023/12/26 06:34:59;;;;;;;1.90;1.40;;;21.30;58.70;;;;;;5074778;28;20478;-70
2023/12/26 06:37:25;;;;;;;2.63;1.50;;;21.30;58.70;;;;;;5092888;28;20204;-70
2023/12/26 06:39:51;;;;;;;2.67;2.00;;;21.30;58.70;;;;;;5090685;28;20186;-70
2023/12/26 06:42:16;;;;;;;3.93;1.97;;;21.30;58.70;;;;;;5093007;28;20438;-70
2023/12/26 06:44:42;;;;;;;1.90;1.53;;;21.30;58.70;;;;;;5094243;28;20570;-70
2023/12/26 06:47:07;;;;;;;2.77;1.80;;;21.30;58.70;;;;;;5093762;28;20296;-70
2023/12/26 06:49:33;;;;;;;3.60;1.83;;;21.30;58.70;;;;;;5092337;28;20166;-70
2023/12/26 06:52:00;;;;;;;3.30;2.20;;;21.30;58.70;;;;;;5093648;28;20201;-70
2023/12/26 06:54:26;;;;;;;2.40;1.50;;;21.40;58.70;;;;;;5092431;28;20696;-69
2023/12/26 06:56:51;;;;;;;2.03;1.50;;;21.40;58.70;;;;;;5093657;28;20426;-70
2023/12/26 06:59:18;;;;;;;2.63;1.50;;;21.40;58.70;;;;;;5093941;28;20407;-70
2023/12/26 07:01:47;;;;;;;3.73;2.10;;;21.40;58.70;;;;;;5091240;28;20177;-70
2023/12/26 07:04:13;;;;;;;1.90;1.50;;;21.40;58.70;;;;;;5092823;28;20407;-70
2023/12/26 07:06:38;;;;;;;3.27;1.40;;;21.40;58.70;;;;;;5092008;28;20414;-70
2023/12/26 07:09:04;;;;;;;2.17;1.47;;;21.40;58.60;;;;;;5092031;28;20914;-70
2023/12/26 07:11:30;;;;;;;2.40;1.80;;;21.40;58.70;;;;;;5092967;28;20559;-70
2023/12/26 07:13:55;;;;;;;2.07;1.37;;;21.40;58.60;;;;;;5092626;28;20208;-69
2023/12/26 07:16:21;;;;;;;2.13;1.50;;;21.50;58.70;;;;;;5091375;28;20173;-71
2023/12/26 07:18:47;;;;;;;3.27;1.87;;;21.50;58.70;;;;;;5090373;28;20178;-69
2023/12/26 07:21:16;;;;;;;2.90;1.80;;;21.50;58.70;;;;;;5091823;28;20170;-69
2023/12/26 07:23:44;;;;;;;2.33;1.63;;;21.50;58.70;;;;;;5091739;28;20435;-71
2023/12/26 07:26:10;;;;;;;3.90;1.97;;;21.50;58.70;;;;;;5091852;28;20460;-70
2023/12/26 07:28:36;;;;;;;3.30;1.77;;;21.50;58.80;;;;;;5092521;28;20423;-71
2023/12/26 07:31:01;;;;;;;1.93;1.40;;;21.50;58.80;;;;;;5092463;28;20197;-70
2023/12/26 07:33:27;;;;;;;1.77;1.30;;;21.50;58.80;;;;;;5092172;28;20254;-70
2023/12/26 07:35:57;;;;;;;3.13;1.23;;;21.50;58.80;;;;;;5092093;28;20546;-71
2023/12/26 07:38:23;;;;;;;1.63;1.30;;;21.50;58.80;;;;;;5090526;28;20202;-70
2023/12/26 07:40:50;;;;;;;2.47;1.57;;;21.50;58.80;;;;;;5092111;28;20422;-70
2023/12/26 07:43:16;;;;;;;2.20;1.40;;;21.50;58.80;;;;;;5091739;28;20947;-70
2023/12/26 07:45:42;;;;;;;3.10;1.90;;;21.50;58.80;;;;;;5091962;28;20416;-70
2023/12/26 07:48:08;;;;;;;3.27;1.33;;;21.50;58.70;;;;;;5091800;28;20428;-69
2023/12/26 07:50:34;;;;;;;2.20;1.47;;;21.50;58.80;;;;;;5091689;28;20985;-70
2023/12/26 07:52:59;;;;;;;1.77;1.50;;;21.50;58.70;;;;;;5091901;28;20562;-70
2023/12/26 07:55:25;;;;;;;1.87;1.53;;;21.50;58.70;;;;;;5088938;28;20215;-71
2023/12/26 07:57:51;;;;;;;4.50;1.70;;;21.50;58.70;;;;;;5091322;28;20182;-70
2023/12/26 08:00:17;;;;;;;2.30;1.67;;;21.50;58.70;;;;;;5088809;28;20264;-70
2023/12/26 08:02:42;;;;;;;2.90;1.63;;;21.50;58.70;;;;;;5088823;28;20461;-70
2023/12/26 08:05:09;;;;;;;2.90;1.57;;;21.60;58.80;;;;;;5091152;28;20648;-70
2023/12/26 08:07:35;;;;;;;2.40;1.50;;;21.50;58.70;;;;;;5091352;28;20193;-69
2023/12/26 08:10:00;;;;;;;2.10;1.67;;;21.60;58.80;;;;;;5091568;28;20407;-69
2023/12/26 08:12:26;;;;;;;2.17;1.50;;;21.50;58.70;;;;;;5090335;28;20220;-69
2023/12/26 08:14:52;;;;;;;1.90;1.70;;;21.50;58.70;;;;;;5091062;28;20257;-70
2023/12/26 08:17:17;;;;;;;2.13;1.60;;;21.50;58.80;;;;;;5090395;28;20261;-70
2023/12/26 08:19:43;;;;;;;2.57;1.87;;;21.50;58.70;;;;;;5090614;28;20188;-69
2023/12/26 08:22:08;;;;;;;3.60;1.63;;;21.50;58.70;;;;;;5090762;28;20182;-69
2023/12/26 08:24:34;;;;;;;2.00;1.33;;;21.50;58.70;;;;;;5090819;28;20940;-70
2023/12/26 08:27:00;;;;;;;2.70;1.87;;;21.50;58.80;;;;;;5089209;28;20204;-70
2023/12/26 08:29:26;;;;;;;4.00;1.70;;;21.50;58.90;;;;;;5090730;28;20177;-70
2023/12/26 08:31:53;;;;;;;3.60;2.17;;;21.60;59.00;;;;;;5090369;28;20323;-70
2023/12/26 08:34:19;;;;;;;6.43;1.57;;;21.60;59.00;;;;;;5089969;28;20400;-70
2023/12/26 08:36:45;;;;;;;3.57;1.63;;;21.50;59.00;;;;;;5090625;28;20451;-69
2023/12/26 08:39:10;;;;;;;4.20;1.73;;;21.60;59.10;;;;;;5090628;28;20493;-70
2023/12/26 08:41:36;;;;;;;5.67;1.60;;;21.50;59.10;;;;;;5090192;28;20660;-70
2023/12/26 08:44:02;;;;;;;3.93;2.03;;;21.60;59.10;;;;;;5090378;28;20177;-69
2023/12/26 08:46:27;;;;;;;6.03;1.57;;;21.50;59.00;;;;;;5089275;28;20230;-70
2023/12/26 08:48:53;;;;;;;2.70;1.40;;;21.60;59.10;;;;;;5090410;28;20745;-70
2023/12/26 08:51:19;;;;;;;2.80;1.43;;;21.50;59.00;;;;;;5090252;28;20189;-70
2023/12/26 08:53:47;;;;;;;3.80;1.30;;;21.50;59.00;;;;;;5089652;28;20193;-70
2023/12/26 08:56:13;;;;;;;2.50;1.73;;;21.50;59.00;;;;;;5089828;28;20423;-70
2023/12/26 08:58:38;;;;;;;5.27;1.50;;;21.50;59.00;;;;;;5090307;28;20442;-70
2023/12/26 09:01:06;;;;;;;3.17;1.70;;;21.50;59.10;;;;;;5089401;28;20433;-70
2023/12/26 09:03:31;;;;;;;2.53;1.43;;;21.50;59.00;;;;;;5092705;28;20704;-71
2023/12/26 09:05:57;;;;;;;3.10;1.70;;;21.50;59.00;;;;;;5094515;28;20404;-70
2023/12/26 09:08:23;;;;;;;4.13;1.20;;;21.50;59.00;;;;;;5097546;28;20205;-70
2023/12/26 09:10:48;;;;;;;3.17;2.00;;;21.50;59.00;;;;;;5095834;28;20254;-73
2023/12/26 09:13:16;;;;;;;9.77;1.90;;;21.50;58.90;;;;;;5094636;28;20686;-75
2023/12/26 09:15:43;;;;;;;5.30;2.03;;;21.50;59.00;;;;;;5094288;28;20173;-73
2023/12/26 09:18:08;;;;;;;3.90;2.10;;;21.50;59.00;;;;;;5095526;28;20451;-73
2023/12/26 09:20:34;;;;;;;2.57;1.50;;;21.50;58.90;;;;;;5094885;28;20498;-75
2023/12/26 09:23:00;;;;;;;2.43;1.40;;;21.60;58.90;;;;;;5094614;28;20172;-73
2023/12/26 09:25:25;;;;;;;3.17;1.80;;;21.50;58.90;;;;;;5094515;28;20926;-73
2023/12/26 09:27:51;;;;;;;2.63;1.40;;;21.60;58.80;;;;;;5093105;28;20253;-72
2023/12/26 09:30:18;;;;;;;3.00;1.40;;;21.60;58.80;;;;;;5094274;28;20555;-71
2023/12/26 09:32:43;;;;;;;2.20;1.40;;;21.60;58.80;;;;;;5093400;28;20307;-71
2023/12/26 09:35:09;;;;;;;3.50;2.00;;;21.60;58.80;;;;;;5092570;28;20897;-71
2023/12/26 09:37:38;;;;;;;4.10;1.60;;;21.60;58.80;;;;;;5093963;28;20193;-72
2023/12/26 09:40:06;;;;;;;6.20;1.83;;;21.60;58.80;;;;;;5093718;28;20162;-68
2023/12/26 09:42:32;;;;;;;2.63;1.40;;;21.60;58.80;;;;;;5093816;28;20407;-68
2023/12/26 09:44:58;;;;;;;2.33;1.40;;;21.60;58.90;;;;;;5094203;28;20408;-72
2023/12/26 09:47:25;;;;;;;3.10;1.60;;;21.60;58.70;;;;;;5092783;28;20570;-69
2023/12/26 09:49:53;;;;;;;1.73;1.23;;;21.60;58.70;;;;;;5092263;28;20595;-69
2023/12/26 09:52:21;;;;;;;2.43;1.47;;;21.60;58.70;;;;;;5093133;28;20538;-68
2023/12/26 09:54:48;;;;;;;3.00;1.70;;;21.60;58.70;;;;;;5093540;28;20407;-69
2023/12/26 09:57:15;;;;;;;2.97;1.80;;;21.60;58.80;;;;;;5094195;28;20419;-68
2023/12/26 09:59:42;;;;;;;4.53;1.50;;;21.60;58.80;;;;;;5093416;28;20411;-68
2023/12/26 10:02:14;;;;;;;4.67;2.20;;;21.60;58.80;;;;;;5093507;28;20411;-68
2023/12/26 10:04:40;;;;;;;6.10;1.90;;;21.60;58.90;;;;;;5093344;28;20411;-68
2023/12/26 10:07:06;;;;;;;7.00;2.23;;;21.70;59.00;;;;;;5093133;28;20466;-68
2023/12/26 10:09:32;;;;;;;3.43;2.17;;;21.60;59.00;;;;;;5093248;28;20439;-69
2023/12/26 10:11:57;;;;;;;3.17;1.73;;;21.60;59.00;;;;;;5093086;28;20477;-68
2023/12/26 10:14:28;;;;;;;3.60;1.70;;;21.60;59.00;;;;;;5093058;28;20399;-68
2023/12/26 10:16:56;;;;;;;6.30;1.63;;;21.60;59.10;;;;;;5092785;28;20571;-68
2023/12/26 10:19:22;;;;;;;3.20;1.70;;;21.60;59.10;;;;;;5092852;28;20403;-69
2023/12/26 10:21:52;;;;;;;2.40;1.10;;;21.60;59.10;;;;;;5092848;28;20436;-68
2023/12/26 10:24:19;;;;;;;4.47;1.47;;;21.60;59.10;;;;;;5091731;28;20415;-67
2023/12/26 10:26:45;;;;;;;2.90;1.53;;;21.60;59.10;;;;;;5092786;28;20432;-69
2023/12/26 10:29:15;;;;;;;2.80;1.70;;;21.60;59.10;;;;;;5091344;28;20426;-69
2023/12/26 10:31:42;;;;;;;2.47;1.80;;;21.60;59.10;;;;;;5092823;28;20824;-68
2023/12/26 10:34:19;;;;;;;2.97;1.70;;;21.60;59.10;;;;;;5092719;28;20403;-69
2023/12/26 10:36:48;;;;;;;3.50;1.83;;;21.60;59.10;;;;;;5092548;28;20431;-68
2023/12/26 10:39:15;;;;;;;4.13;1.40;;;21.60;59.10;;;;;;5092647;28;20439;-68
2023/12/26 10:41:45;;;;;;;3.70;1.67;;;21.60;59.10;;;;;;5092573;28;20494;-68
2023/12/26 10:44:13;;;;;;;2.53;1.10;;;21.60;59.10;;;;;;5092473;28;20412;-65
2023/12/26 10:46:40;;;;;;;2.83;1.40;;;21.60;59.10;;;;;;5092815;28;20509;-67
2023/12/26 10:49:10;;;;;;;3.53;1.50;;;21.60;59.10;;;;;;5092418;28;20513;-68
2023/12/26 10:51:43;;;;;;;2.40;1.50;;;21.60;59.10;;;;;;5092691;28;20436;-68
2023/12/26 10:54:25;;;;;;;4.03;1.80;;;21.60;59.10;;;;;;5092441;28;20396;-68
2023/12/26 10:56:52;;;;;;;2.40;1.50;;;21.60;59.10;;;;;;5092125;28;20431;-67
2023/12/26 13:51:44;;;;;;;10.47;5.40;;;21.50;59.50;;;;;;5143505;27;20826;-66
2023/12/26 13:54:47;;;;;;;12.03;5.33;;;21.50;59.50;;;;;;5131008;27;20826;-67
2023/12/26 13:57:50;;;;;;;11.97;5.10;;;21.50;59.60;;;;;;5128196;27;20463;-67
2023/12/26 14:00:53;;;;;;;13.97;5.83;;;21.50;59.50;;;;;;5149453;27;20416;-67
2023/12/26 14:03:56;;;;;;;9.70;5.80;;;21.50;59.50;;;;;;5134161;27;20418;-66
2023/12/26 14:07:00;;;;;;;9.00;5.27;;;21.50;59.50;;;;;;5131342;27;20412;-66
2023/12/26 14:10:03;;;;;;;9.97;5.73;;;21.50;59.50;;;;;;5129846;27;20500;-67
2023/12/26 14:13:06;;;;;;;10.93;5.67;;;21.50;59.50;;;;;;5132159;27;20488;-66
2023/12/26 14:16:09;;;;;;;7.97;4.70;;;21.50;59.50;;;;;;5133916;27;20408;-67
2023/12/26 14:19:13;;;;;;;11.77;5.47;;;21.50;59.50;;;;;;5146150;27;20459;-67
2023/12/26 14:22:16;;;;;;;10.47;5.17;;;21.50;59.40;;;;;;5147914;27;20521;-66
2023/12/26 14:25:19;;;;;;;13.07;5.67;;;21.50;59.40;;;;;;5142953;27;20424;-66
2023/12/26 14:28:22;;;;;;;13.20;5.67;;;21.50;59.40;;;;;;5146128;27;20445;-66
2023/12/26 14:31:25;;;;;;;7.97;4.40;;;21.50;59.40;;;;;;5149846;27;20491;-66
2023/12/26 14:34:28;;;;;;;7.60;4.97;;;21.50;59.40;;;;;;5122324;27;20411;-67
2023/12/26 14:37:31;;;;;;;8.57;4.50;;;21.50;59.40;;;;;;5150363;27;20813;-67
2023/12/26 14:40:34;;;;;;;7.40;5.10;;;21.50;59.40;;;;;;5142390;27;20478;-66
2023/12/26 14:43:37;;;;;;;12.17;5.30;;;21.50;59.40;;;;;;5146622;27;20445;-70
2023/12/26 14:46:40;;;;;;;8.67;5.03;;;21.50;59.40;;;;;;5140090;27;20474;-67
2023/12/26 14:49:44;;;;;;;10.00;6.33;;;21.50;59.40;;;;;;5124651;27;20453;-69
2023/12/26 14:52:48;;;;;;;11.30;4.47;;;21.50;59.40;;;;;;5134792;27;20451;-69
2023/12/26 14:55:51;;;;;;;7.17;4.90;;;21.50;59.40;;;;;;5140025;27;20773;-67
2023/12/26 14:58:54;;;;;;;7.73;4.60;;;21.50;59.40;;;;;;5143993;27;20448;-71
2023/12/26 15:01:55;;;;;;;11.67;4.90;;;21.50;59.40;;;;;;5143489;27;20421;-72
2023/12/26 15:04:23;;;;;;;7.23;4.50;;;21.50;59.40;;;;;;5145202;27;20457;-71
2023/12/26 15:06:50;;;;;;;7.50;4.13;;;21.50;59.40;;;;;;5124008;27;20808;-71
2023/12/26 15:09:15;;;;;;;10.27;5.40;;;21.50;59.40;;;;;;5144807;27;20912;-72
2023/12/26 15:11:41;;;;;;;6.90;4.77;;;21.50;59.30;;;;;;5143547;27;20552;-71
2023/12/26 15:14:13;;;;;;;7.80;4.67;;;21.50;59.30;;;;;;5139371;27;20172;-72
2023/12/26 15:16:38;;;;;;;8.87;4.50;;;21.50;59.20;;;;;;5149322;27;20192;-71
2023/12/26 15:19:04;;;;;;;10.47;5.10;;;21.50;59.20;;;;;;5152170;27;20830;-72
2023/12/26 15:21:30;;;;;;;8.00;5.57;;;21.50;59.20;;;;;;5144795;27;20210;-68
2023/12/26 15:23:55;;;;;;;9.40;5.17;;;21.50;59.20;;;;;;5138657;27;20230;-69
2023/12/26 15:26:21;;;;;;;9.73;4.93;;;21.50;59.20;;;;;;5134343;27;20546;-69
2023/12/26 15:28:47;;;;;;;6.10;4.53;;;21.50;59.20;;;;;;5134245;27;20168;-69
2023/12/26 15:31:15;;;;;;;5.97;4.23;;;21.50;59.20;;;;;;5134330;27;20196;-69
2023/12/26 15:33:42;;;;;;;9.50;4.90;;;21.50;59.20;;;;;;5134380;27;20406;-69
2023/12/26 15:36:15;;;;;;;9.13;4.67;;;21.50;59.20;;;;;;5134369;27;20394;-69
2023/12/26 15:38:40;;;;;;;7.83;5.20;;;21.50;59.20;;;;;;5116008;27;20422;-68
2023/12/26 15:41:06;;;;;;;8.77;5.00;;;21.50;59.30;;;;;;5134094;27;20784;-67
2023/12/26 15:43:32;;;;;;;6.03;4.47;;;21.50;59.40;;;;;;5134287;27;20168;-68
2023/12/26 15:45:57;;;;;;;9.23;4.17;;;21.50;59.30;;;;;;5134289;27;20180;-68